Time;durP1;ratioP1;P1;durP2;ratioP2;P2;SDS_P1;SDS_P2;PMS_P1;PMS_P2;Temp;Humidity;BMP_temperature;BMP_pressure;BME280_temperature;BME280_humidity;BME280_pressure;Samples;Min_cycle;Max_cycle;Signal;HPM_P1;HPM_P2
2023/03/01 00:01:12;;;;;;;12.45;7.75;;;;;;;;;;5080986;28;20020;-73
2023/03/01 00:03:37;;;;;;;14.20;7.67;;;;;;;;;;5080867;28;20031;-72
2023/03/01 00:06:04;;;;;;;16.35;8.57;;;;;;;;;;5080464;28;20225;-72
2023/03/01 00:08:30;;;;;;;16.13;9.00;;;;;;;;;;5080697;28;20262;-73
2023/03/01 00:11:03;;;;;;;16.60;9.07;;;;;;;;;;5080575;28;20020;-73
2023/03/01 00:13:29;;;;;;;14.60;8.32;;;;;;;;;;5080178;28;20016;-73
2023/03/01 00:15:54;;;;;;;16.42;9.02;;;;;;;;;;5080449;28;20051;-73
2023/03/01 00:18:20;;;;;;;17.15;8.65;;;;;;;;;;5080769;28;20035;-73
2023/03/01 00:20:53;;;;;;;19.92;9.77;;;;;;;;;;5080646;28;20024;-73
2023/03/01 00:23:18;;;;;;;15.00;9.30;;;;;;;;;;5080563;28;20028;-73
2023/03/01 00:25:44;;;;;;;16.60;9.45;;;;;;;;;;5084692;28;20255;-72
2023/03/01 00:28:09;;;;;;;17.10;10.02;;;;;;;;;;5084413;28;20340;-74
2023/03/01 00:30:35;;;;;;;16.27;9.82;;;;;;;;;;5084344;28;20213;-73
2023/03/01 00:33:00;;;;;;;17.33;10.20;;;;;;;;;;5084443;28;20024;-74
2023/03/01 00:35:25;;;;;;;18.33;9.90;;;;;;;;;;5084703;28;20020;-74
2023/03/01 00:37:57;;;;;;;18.40;10.15;;;;;;;;;;5084480;28;20031;-74
2023/03/01 00:40:24;;;;;;;16.75;9.63;;;;;;;;;;5084333;28;20032;-74
2023/03/01 00:42:49;;;;;;;19.45;10.60;;;;;;;;;;5083970;28;20309;-74
2023/03/01 00:45:15;;;;;;;18.73;10.38;;;;;;;;;;5083830;28;20035;-73
2023/03/01 00:47:40;;;;;;;17.25;10.35;;;;;;;;;;5084280;28;20262;-73
2023/03/01 00:50:06;;;;;;;18.48;10.65;;;;;;;;;;5084292;28;20097;-73
2023/03/01 00:52:31;;;;;;;18.60;10.52;;;;;;;;;;5083876;28;20028;-74
2023/03/01 00:54:57;;;;;;;18.92;10.15;;;;;;;;;;5084173;28;20028;-73
2023/03/01 00:57:23;;;;;;;19.95;9.98;;;;;;;;;;5114555;28;20050;-73
2023/03/01 00:59:49;;;;;;;17.77;9.75;;;;;;;;;;5105928;28;20027;-74
2023/03/01 01:02:14;;;;;;;17.67;9.32;;;;;;;;;;5124549;28;20060;-73
2023/03/01 01:04:40;;;;;;;17.08;9.93;;;;;;;;;;5124442;28;20016;-73
2023/03/01 01:07:05;;;;;;;18.27;9.75;;;;;;;;;;5124707;28;20078;-73
2023/03/01 01:09:31;;;;;;;17.38;9.77;;;;;;;;;;5124716;28;20062;-73
2023/03/01 01:11:56;;;;;;;18.67;10.45;;;;;;;;;;5124371;28;20028;-73
2023/03/01 01:14:22;;;;;;;21.67;10.57;;;;;;;;;;5124096;28;20035;-73
2023/03/01 01:16:48;;;;;;;17.30;9.85;;;;;;;;;;5124229;28;20087;-72
2023/03/01 01:19:14;;;;;;;15.68;9.32;;;;;;;;;;5124046;28;20023;-72
2023/03/01 01:21:39;;;;;;;16.60;10.18;;;;;;;;;;5124217;28;20286;-73
2023/03/01 01:24:05;;;;;;;16.38;9.20;;;;;;;;;;5124251;28;20024;-73
2023/03/01 01:26:32;;;;;;;19.17;10.05;;;;;;;;;;5123979;28;20448;-72
2023/03/01 01:28:59;;;;;;;15.73;9.25;;;;;;;;;;5123653;28;20200;-72
2023/03/01 01:31:26;;;;;;;18.23;10.15;;;;;;;;;;5124382;28;20027;-72
2023/03/01 01:33:53;;;;;;;20.95;9.73;;;;;;;;;;5123747;28;20065;-71
2023/03/01 01:36:18;;;;;;;16.98;9.40;;;;;;;;;;5123523;28;20023;-73
2023/03/01 01:38:44;;;;;;;14.82;8.65;;;;;;;;;;5124064;28;20046;-74
2023/03/01 01:41:11;;;;;;;13.80;7.90;;;;;;;;;;5124017;28;20046;-73
2023/03/01 01:44:12;;;;;;;14.20;8.00;;;;;;;;;;5123479;28;20035;-70
2023/03/01 01:46:47;;;;;;;11.90;6.63;;;;;;;;;;5091814;28;20082;-72
2023/03/01 01:49:27;;;;;;;9.80;6.00;;;;;;;;;;5130642;28;20319;-71
2023/03/01 01:52:14;;;;;;;13.95;7.30;;;;;;;;;;5129966;28;20034;-71
2023/03/01 01:54:50;;;;;;;15.20;7.20;;;;;;;;;;5124263;28;20114;-71
2023/03/01 01:57:20;;;;;;;13.35;6.88;;;;;;;;;;5123550;28;20015;-72
2023/03/01 01:59:52;;;;;;;14.30;7.18;;;;;;;;;;5123333;28;20038;-72
2023/03/01 02:02:19;;;;;;;12.23;6.30;;;;;;;;;;5123699;28;20572;-70
2023/03/01 02:04:46;;;;;;;15.20;6.90;;;;;;;;;;5123285;28;20246;-70
2023/03/01 02:07:19;;;;;;;13.82;7.30;;;;;;;;;;5123352;28;20019;-73
2023/03/01 02:09:51;;;;;;;12.43;6.32;;;;;;;;;;5123321;28;20393;-74
2023/03/01 02:12:19;;;;;;;11.93;6.47;;;;;;;;;;5123027;28;20027;-72
2023/03/01 02:14:44;;;;;;;8.77;5.50;;;;;;;;;;5122676;28;20100;-73
2023/03/01 02:17:12;;;;;;;12.65;6.20;;;;;;;;;;5104991;28;20228;-70
2023/03/01 02:19:46;;;;;;;11.38;6.10;;;;;;;;;;5123155;28;20039;-71
2023/03/01 02:22:23;;;;;;;12.05;6.50;;;;;;;;;;5104881;28;20053;-72
2023/03/01 02:25:02;;;;;;;10.68;6.05;;;;;;;;;;5122940;28;20023;-69
2023/03/01 02:27:52;;;;;;;8.57;5.57;;;;;;;;;;5122754;28;20034;-71
2023/03/01 02:30:21;;;;;;;10.90;6.03;;;;;;;;;;5108109;28;20036;-71
2023/03/01 02:32:49;;;;;;;10.95;5.95;;;;;;;;;;5104718;28;20093;-70
2023/03/01 02:35:17;;;;;;;10.40;6.28;;;;;;;;;;5104735;28;20099;-71
2023/03/01 02:37:44;;;;;;;15.38;6.70;;;;;;;;;;5122420;28;20360;-72
2023/03/01 02:40:17;;;;;;;12.43;6.57;;;;;;;;;;5122999;28;20058;-71
2023/03/01 02:42:58;;;;;;;12.95;5.90;;;;;;;;;;5122596;28;20027;-71
2023/03/01 02:45:25;;;;;;;9.65;6.22;;;;;;;;;;5122090;28;20023;-71
2023/03/01 02:47:55;;;;;;;12.55;6.50;;;;;;;;;;5103353;28;20098;-71
2023/03/01 02:50:29;;;;;;;13.57;7.25;;;;;;;;;;5122619;28;20038;-74
2023/03/01 02:53:28;;;;;;;12.60;7.28;;;;;;;;;;5122631;28;20327;-71
2023/03/01 02:55:53;;;;;;;14.20;7.15;;;;;;;;;;5122458;28;20056;-71
2023/03/01 02:58:19;;;;;;;13.07;7.00;;;;;;;;;;5122208;28;20019;-72
2023/03/01 03:00:46;;;;;;;12.85;6.80;;;;;;;;;;5121944;28;20313;-74
2023/03/01 03:03:17;;;;;;;11.43;6.72;;;;;;;;;;5103926;28;20211;-73
2023/03/01 03:05:43;;;;;;;12.48;6.88;;;;;;;;;;5122456;27;20039;-73
2023/03/01 03:08:09;;;;;;;12.75;6.72;;;;;;;;;;5142755;27;20214;-71
2023/03/01 03:10:39;;;;;;;13.00;7.10;;;;;;;;;;5143244;27;20023;-71
2023/03/01 03:13:07;;;;;;;14.13;7.57;;;;;;;;;;5146593;27;20060;-72
2023/03/01 03:15:35;;;;;;;10.98;7.13;;;;;;;;;;5143932;27;20318;-71
2023/03/01 03:18:04;;;;;;;16.27;7.57;;;;;;;;;;5142607;27;20053;-70
2023/03/01 03:20:30;;;;;;;13.13;7.30;;;;;;;;;;5142748;27;20027;-70
2023/03/01 03:22:58;;;;;;;12.48;7.30;;;;;;;;;;5142698;27;20030;-71
2023/03/01 03:25:24;;;;;;;16.63;8.25;;;;;;;;;;5142752;27;20346;-70
2023/03/01 03:27:56;;;;;;;15.27;8.32;;;;;;;;;;5142440;27;20031;-69
2023/03/01 03:30:22;;;;;;;14.50;7.80;;;;;;;;;;5142162;27;20038;-76
2023/03/01 03:32:51;;;;;;;13.23;7.60;;;;;;;;;;5142471;27;20031;-70
2023/03/01 03:35:21;;;;;;;15.50;8.60;;;;;;;;;;5142251;27;20034;-70
2023/03/01 03:38:02;;;;;;;14.45;7.88;;;;;;;;;;5142131;27;20102;-69
2023/03/01 03:40:39;;;;;;;14.18;7.43;;;;;;;;;;5142299;27;20031;-70
2023/03/01 03:43:07;;;;;;;14.05;8.07;;;;;;;;;;5142265;27;20038;-71
2023/03/01 03:45:33;;;;;;;17.20;7.75;;;;;;;;;;5142018;27;20075;-71
2023/03/01 03:47:59;;;;;;;15.30;8.13;;;;;;;;;;5142107;27;20023;-69
2023/03/01 03:50:25;;;;;;;17.98;8.52;;;;;;;;;;5142148;27;20031;-69
2023/03/01 03:52:51;;;;;;;15.10;7.97;;;;;;;;;;5142124;27;20038;-70
2023/03/01 03:55:19;;;;;;;16.27;8.13;;;;;;;;;;5141937;27;20051;-69
2023/03/01 03:57:51;;;;;;;15.02;8.20;;;;;;;;;;5141772;27;20219;-69
2023/03/01 04:00:19;;;;;;;15.18;7.82;;;;;;;;;;5141727;27;20043;-69
2023/03/01 04:02:45;;;;;;;13.23;7.63;;;;;;;;;;5142040;27;20039;-69
2023/03/01 04:05:14;;;;;;;14.57;7.43;;;;;;;;;;5135521;27;20034;-69
2023/03/01 04:07:40;;;;;;;13.25;7.68;;;;;;;;;;5121393;28;20023;-69
2023/03/01 04:10:09;;;;;;;16.50;7.50;;;;;;;;;;5123788;28;20327;-70
2023/03/01 04:12:34;;;;;;;15.43;7.80;;;;;;;;;;5123449;28;20023;-69
2023/03/01 04:15:01;;;;;;;13.57;7.63;;;;;;;;;;5122655;28;20371;-70
2023/03/01 04:17:27;;;;;;;13.38;7.60;;;;;;;;;;5122003;28;20220;-69
2023/03/01 04:19:52;;;;;;;12.70;7.70;;;;;;;;;;5121310;28;20038;-70
2023/03/01 04:22:18;;;;;;;15.50;7.50;;;;;;;;;;5121488;28;20047;-70
2023/03/01 04:24:44;;;;;;;12.35;7.15;;;;;;;;;;5121194;28;20061;-70
2023/03/01 04:27:10;;;;;;;12.73;7.10;;;;;;;;;;5124905;28;20028;-71
2023/03/01 04:29:36;;;;;;;15.38;7.60;;;;;;;;;;5127105;28;20023;-70
2023/03/01 04:32:02;;;;;;;11.60;7.13;;;;;;;;;;5104667;28;20032;-69
2023/03/01 04:34:28;;;;;;;13.38;7.00;;;;;;;;;;5121666;28;20094;-69
2023/03/01 04:36:53;;;;;;;11.57;7.20;;;;;;;;;;5121662;28;20031;-69
2023/03/01 04:39:19;;;;;;;13.02;7.30;;;;;;;;;;5121068;28;20062;-69
2023/03/01 04:41:44;;;;;;;12.98;7.35;;;;;;;;;;5103211;28;20061;-69
2023/03/01 04:44:11;;;;;;;12.68;7.22;;;;;;;;;;5120428;28;20315;-70
2023/03/01 04:46:36;;;;;;;11.68;7.25;;;;;;;;;;5121049;28;20041;-69
2023/03/01 04:49:02;;;;;;;12.10;7.10;;;;;;;;;;5120769;28;20024;-71
2023/03/01 04:51:28;;;;;;;13.07;6.93;;;;;;;;;;5120860;28;20019;-71
2023/03/01 04:53:54;;;;;;;11.20;6.85;;;;;;;;;;5120996;28;20212;-71
2023/03/01 04:56:19;;;;;;;13.70;7.15;;;;;;;;;;5121073;28;20028;-71
2023/03/01 04:58:46;;;;;;;14.93;7.80;;;;;;;;;;5120206;28;20055;-70
2023/03/01 05:01:17;;;;;;;13.35;7.30;;;;;;;;;;5120865;28;20040;-70
2023/03/01 05:03:44;;;;;;;12.10;7.45;;;;;;;;;;5120935;28;20307;-70
2023/03/01 05:06:10;;;;;;;15.00;7.00;;;;;;;;;;5120653;28;20043;-70
2023/03/01 05:08:39;;;;;;;16.60;7.28;;;;;;;;;;5120583;28;20331;-69
2023/03/01 05:11:05;;;;;;;11.38;7.05;;;;;;;;;;5123800;28;20023;-71
2023/03/01 05:13:31;;;;;;;12.15;7.28;;;;;;;;;;5124224;28;20023;-71
2023/03/01 05:15:59;;;;;;;15.10;7.60;;;;;;;;;;5124727;28;20024;-70
2023/03/01 05:18:25;;;;;;;15.90;7.78;;;;;;;;;;5124514;28;20095;-70
2023/03/01 05:20:58;;;;;;;13.20;7.25;;;;;;;;;;5124303;28;20221;-69
2023/03/01 05:23:24;;;;;;;14.75;7.25;;;;;;;;;;5124319;28;20321;-70
2023/03/01 05:25:52;;;;;;;11.32;7.32;;;;;;;;;;5124312;28;20032;-69
2023/03/01 05:28:19;;;;;;;14.50;7.53;;;;;;;;;;5124336;28;20067;-69
2023/03/01 05:30:45;;;;;;;13.07;7.10;;;;;;;;;;5105395;28;20032;-69
2023/03/01 05:33:13;;;;;;;12.57;7.25;;;;;;;;;;5124179;28;20080;-69
2023/03/01 05:35:41;;;;;;;12.15;7.30;;;;;;;;;;5124133;28;20035;-70
2023/03/01 05:38:07;;;;;;;13.63;7.95;;;;;;;;;;5123778;28;20027;-69
2023/03/01 05:40:34;;;;;;;13.30;7.57;;;;;;;;;;5123652;28;20039;-70
2023/03/01 05:42:59;;;;;;;15.23;8.07;;;;;;;;;;5123965;28;20027;-71
2023/03/01 05:45:26;;;;;;;14.00;7.85;;;;;;;;;;5123385;28;20115;-69
2023/03/01 05:47:52;;;;;;;13.25;7.65;;;;;;;;;;5123673;28;20031;-71
2023/03/01 05:50:23;;;;;;;11.63;7.43;;;;;;;;;;5123685;28;20330;-69
2023/03/01 05:52:50;;;;;;;12.85;7.30;;;;;;;;;;5123701;28;20023;-71
2023/03/01 05:55:18;;;;;;;12.70;7.63;;;;;;;;;;5123420;28;20027;-70
2023/03/01 05:57:44;;;;;;;13.63;7.68;;;;;;;;;;5123451;28;20030;-70
2023/03/01 06:00:11;;;;;;;12.93;7.47;;;;;;;;;;5122945;28;20098;-70
2023/03/01 06:02:37;;;;;;;13.15;7.20;;;;;;;;;;5123575;28;20015;-71
2023/03/01 06:05:04;;;;;;;12.30;7.53;;;;;;;;;;5123395;28;20319;-70
2023/03/01 06:07:30;;;;;;;13.45;8.05;;;;;;;;;;5123515;28;20102;-69
2023/03/01 06:09:55;;;;;;;11.70;7.40;;;;;;;;;;5123283;28;20028;-69
2023/03/01 06:12:21;;;;;;;12.50;7.28;;;;;;;;;;5105184;28;20035;-70
2023/03/01 06:14:47;;;;;;;11.80;7.50;;;;;;;;;;5122986;28;20023;-68
2023/03/01 06:17:13;;;;;;;13.60;7.65;;;;;;;;;;5123138;28;20035;-68
2023/03/01 06:19:38;;;;;;;13.68;7.93;;;;;;;;;;5123162;28;20024;-70
2023/03/01 06:22:04;;;;;;;13.98;8.00;;;;;;;;;;5121667;28;20090;-70
2023/03/01 06:24:29;;;;;;;15.15;8.00;;;;;;;;;;5123419;28;20031;-70
2023/03/01 06:26:55;;;;;;;13.73;7.97;;;;;;;;;;5123019;28;20016;-70
2023/03/01 06:29:22;;;;;;;12.80;8.18;;;;;;;;;;5122397;28;20046;-69
2023/03/01 06:31:47;;;;;;;12.93;8.20;;;;;;;;;;5123108;28;20024;-69
2023/03/01 06:34:13;;;;;;;14.18;7.75;;;;;;;;;;5123753;28;20209;-70
2023/03/01 06:36:39;;;;;;;11.13;7.28;;;;;;;;;;5123846;28;20023;-69
2023/03/01 06:39:05;;;;;;;15.82;8.23;;;;;;;;;;5122919;28;20028;-69
2023/03/01 06:41:31;;;;;;;12.82;7.30;;;;;;;;;;5122931;28;20136;-68
2023/03/01 06:43:56;;;;;;;14.60;7.93;;;;;;;;;;5122498;28;20015;-71
2023/03/01 06:46:22;;;;;;;12.70;6.97;;;;;;;;;;5122543;28;20335;-68
2023/03/01 06:48:47;;;;;;;15.60;8.18;;;;;;;;;;5122613;28;20023;-71
2023/03/01 06:51:13;;;;;;;13.93;8.07;;;;;;;;;;5122347;28;20212;-69
2023/03/01 06:53:38;;;;;;;13.43;8.15;;;;;;;;;;5122453;28;20060;-69
2023/03/01 06:56:04;;;;;;;16.65;8.25;;;;;;;;;;5122349;28;20019;-68
2023/03/01 06:58:29;;;;;;;14.65;8.00;;;;;;;;;;5121846;28;20061;-69
2023/03/01 07:00:55;;;;;;;13.80;7.78;;;;;;;;;;5122408;28;20019;-70
2023/03/01 07:03:20;;;;;;;13.27;8.10;;;;;;;;;;5122493;28;20024;-70
2023/03/01 07:05:49;;;;;;;11.82;7.40;;;;;;;;;;5122903;27;20118;-70
2023/03/01 07:08:14;;;;;;;13.60;7.57;;;;;;;;;;5143275;27;20188;-70
2023/03/01 07:10:40;;;;;;;14.20;8.32;;;;;;;;;;5153119;27;20022;-71
2023/03/01 07:13:06;;;;;;;13.40;8.25;;;;;;;;;;5150887;27;20285;-70
2023/03/01 07:15:32;;;;;;;17.45;8.13;;;;;;;;;;5142854;27;20253;-70
2023/03/01 07:17:58;;;;;;;13.63;8.10;;;;;;;;;;5142945;27;20027;-70
2023/03/01 07:20:25;;;;;;;14.65;8.38;;;;;;;;;;5142494;27;20055;-70
2023/03/01 07:22:51;;;;;;;17.60;8.10;;;;;;;;;;5142570;27;20079;-69
2023/03/01 07:25:17;;;;;;;11.25;7.07;;;;;;;;;;5142681;27;20034;-69
2023/03/01 07:27:42;;;;;;;14.90;7.20;;;;;;;;;;5142245;27;20027;-68
2023/03/01 07:30:08;;;;;;;12.38;7.80;;;;;;;;;;5141674;27;20079;-70
2023/03/01 07:32:34;;;;;;;12.88;7.32;;;;;;;;;;5141987;27;20041;-71
2023/03/01 07:34:59;;;;;;;14.70;7.85;;;;;;;;;;5141945;27;20574;-71
2023/03/01 07:37:25;;;;;;;12.30;7.32;;;;;;;;;;5108663;27;20031;-70
2023/03/01 07:39:50;;;;;;;14.15;7.45;;;;;;;;;;5101177;28;20115;-68
2023/03/01 07:42:15;;;;;;;14.10;7.40;;;;;;;;;;5100996;28;20068;-70
2023/03/01 07:44:41;;;;;;;13.00;7.40;;;;;;;;;;5100596;28;20030;-69
2023/03/01 07:47:06;;;;;;;13.35;7.50;;;;;;;;;;5101021;28;20028;-69
2023/03/01 07:49:31;;;;;;;12.13;7.22;;;;;;;;;;5100908;28;20027;-74
2023/03/01 07:51:57;;;;;;;11.38;6.97;;;;;;;;;;5101144;28;20312;-72
2023/03/01 07:54:23;;;;;;;12.50;7.22;;;;;;;;;;5099901;28;20150;-70
2023/03/01 07:56:48;;;;;;;14.23;7.32;;;;;;;;;;5100731;28;20065;-71
2023/03/01 07:59:13;;;;;;;13.52;7.40;;;;;;;;;;5100602;28;20099;-74
2023/03/01 08:01:39;;;;;;;12.93;7.32;;;;;;;;;;5100835;28;20320;-72
2023/03/01 08:04:06;;;;;;;13.30;7.13;;;;;;;;;;5100840;28;20031;-72
2023/03/01 08:06:34;;;;;;;14.32;7.70;;;;;;;;;;5083194;28;20272;-70
2023/03/01 08:08:59;;;;;;;11.93;7.18;;;;;;;;;;5080479;28;20348;-73
2023/03/01 08:11:25;;;;;;;13.30;7.65;;;;;;;;;;5062464;28;20028;-70
2023/03/01 08:13:50;;;;;;;11.35;7.55;;;;;;;;;;5080293;28;20039;-75
2023/03/01 08:16:16;;;;;;;11.45;7.10;;;;;;;;;;5079491;28;20040;-71
2023/03/01 08:18:43;;;;;;;11.52;7.15;;;;;;;;;;5068342;28;20036;-70
2023/03/01 08:21:11;;;;;;;12.50;7.72;;;;;;;;;;5080732;28;20028;-69
2023/03/01 08:23:38;;;;;;;12.52;7.40;;;;;;;;;;5068855;28;20028;-70
2023/03/01 08:26:18;;;;;;;14.63;7.35;;;;;;;;;;5068697;28;20031;-71
2023/03/01 08:28:44;;;;;;;11.20;6.78;;;;;;;;;;5066934;28;20050;-76
2023/03/01 08:31:32;;;;;;;12.13;7.55;;;;;;;;;;5050920;28;20040;-72
2023/03/01 08:34:00;;;;;;;14.80;8.20;;;;;;;;;;5069396;28;20036;-71
2023/03/01 08:36:29;;;;;;;15.35;8.20;;;;;;;;;;5066109;28;20044;-72
2023/03/01 08:38:55;;;;;;;12.90;7.68;;;;;;;;;;5066447;28;20032;-70
2023/03/01 08:41:21;;;;;;;15.43;7.22;;;;;;;;;;5066267;28;20570;-71
2023/03/01 08:43:46;;;;;;;11.63;7.55;;;;;;;;;;5067932;28;20024;-71
2023/03/01 08:46:13;;;;;;;12.57;8.07;;;;;;;;;;5072392;28;20081;-70
2023/03/01 08:48:39;;;;;;;13.77;7.70;;;;;;;;;;5072622;28;20208;-70
2023/03/01 08:51:12;;;;;;;16.35;8.32;;;;;;;;;;5074040;28;20021;-70
2023/03/01 08:53:38;;;;;;;17.20;8.77;;;;;;;;;;5073300;28;20104;-71
2023/03/01 08:56:04;;;;;;;16.48;8.23;;;;;;;;;;5072565;28;20122;-70
2023/03/01 08:58:30;;;;;;;13.60;7.90;;;;;;;;;;5054341;28;20067;-72
2023/03/01 09:00:59;;;;;;;17.55;8.45;;;;;;;;;;5072768;28;20121;-72
2023/03/01 09:03:25;;;;;;;14.55;8.27;;;;;;;;;;5072672;28;20475;-71
2023/03/01 09:05:51;;;;;;;14.93;8.30;;;;;;;;;;5074544;28;20120;-71
2023/03/01 09:08:18;;;;;;;15.77;8.75;;;;;;;;;;5072421;28;20396;-72
2023/03/01 09:10:45;;;;;;;16.88;8.77;;;;;;;;;;5072021;28;20106;-72
2023/03/01 09:13:10;;;;;;;14.95;8.82;;;;;;;;;;5072050;28;20029;-75
2023/03/01 09:15:39;;;;;;;14.15;8.07;;;;;;;;;;5071921;28;20024;-71
2023/03/01 09:18:05;;;;;;;14.93;7.93;;;;;;;;;;5072131;28;20032;-72
2023/03/01 09:20:31;;;;;;;14.02;7.47;;;;;;;;;;5072344;28;20485;-72
2023/03/01 09:22:57;;;;;;;16.67;8.10;;;;;;;;;;5071962;28;20067;-71
2023/03/01 09:25:22;;;;;;;11.45;7.57;;;;;;;;;;5071895;28;20052;-71
2023/03/01 09:27:51;;;;;;;15.00;7.65;;;;;;;;;;5072041;28;20032;-69
2023/03/01 09:30:17;;;;;;;13.40;7.65;;;;;;;;;;5071229;28;20060;-71
2023/03/01 09:32:42;;;;;;;12.93;7.20;;;;;;;;;;5071572;28;20071;-70
2023/03/01 09:35:08;;;;;;;10.00;6.55;;;;;;;;;;5072112;28;20051;-71
2023/03/01 09:37:35;;;;;;;9.60;6.85;;;;;;;;;;5071851;28;20028;-71
2023/03/01 09:40:01;;;;;;;12.98;6.40;;;;;;;;;;5071525;28;20032;-71
2023/03/01 09:42:30;;;;;;;11.45;6.70;;;;;;;;;;5071992;28;20067;-69
2023/03/01 09:45:06;;;;;;;11.55;6.90;;;;;;;;;;5071271;28;20116;-69
2023/03/01 09:47:34;;;;;;;10.98;7.20;;;;;;;;;;5071561;28;20028;-70
2023/03/01 09:50:19;;;;;;;13.48;6.80;;;;;;;;;;5071734;28;20052;-72
2023/03/01 09:52:50;;;;;;;10.20;5.70;;;;;;;;;;5071779;28;20074;-71
2023/03/01 09:55:31;;;;;;;9.32;5.90;;;;;;;;;;5074152;28;20034;-72
2023/03/01 09:58:06;;;;;;;11.38;5.72;;;;;;;;;;5075161;28;20674;-70
2023/03/01 10:00:42;;;;;;;9.70;5.68;;;;;;;;;;5071348;28;20123;-70
2023/03/01 10:03:11;;;;;;;10.65;5.65;;;;;;;;;;5071704;28;20052;-71
2023/03/01 10:05:43;;;;;;;10.05;4.90;;;;;;;;;;5071423;28;20128;-69
2023/03/01 10:08:29;;;;;;;9.25;5.05;;;;;;;;;;5071518;28;20028;-71
2023/03/01 10:10:54;;;;;;;6.93;4.95;;;;;;;;;;5071644;28;20044;-73
2023/03/01 10:13:41;;;;;;;9.02;5.43;;;;;;;;;;5070587;28;20074;-72
2023/03/01 10:16:34;;;;;;;6.78;4.82;;;;;;;;;;5071541;28;20029;-72
2023/03/01 10:19:03;;;;;;;7.35;5.22;;;;;;;;;;5071057;28;20033;-72
2023/03/01 10:21:31;;;;;;;7.47;4.75;;;;;;;;;;5052935;28;20028;-73
2023/03/01 10:24:07;;;;;;;8.43;4.90;;;;;;;;;;5070707;28;20108;-71
2023/03/01 10:26:44;;;;;;;6.05;4.60;;;;;;;;;;5071082;28;20032;-70
2023/03/01 10:29:12;;;;;;;6.35;4.80;;;;;;;;;;5070683;28;20067;-72
2023/03/01 10:31:51;;;;;;;8.43;4.88;;;;;;;;;;5071002;28;20024;-71
2023/03/01 10:34:33;;;;;;;6.82;4.80;;;;;;;;;;5070770;28;20530;-70
2023/03/01 10:37:20;;;;;;;6.57;4.80;;;;;;;;;;5071044;28;20040;-72
2023/03/01 10:40:11;;;;;;;6.10;4.70;;;;;;;;;;5070249;28;20116;-73
2023/03/01 10:42:49;;;;;;;8.88;4.90;;;;;;;;;;5053228;28;20392;-72
2023/03/01 10:45:29;;;;;;;6.22;4.45;;;;;;;;;;5070267;28;20093;-72
2023/03/01 10:48:20;;;;;;;8.20;4.28;;;;;;;;;;5070575;28;20033;-71
2023/03/01 10:50:49;;;;;;;7.60;5.10;;;;;;;;;;5070446;28;20096;-75
2023/03/01 10:53:32;;;;;;;5.90;4.13;;;;;;;;;;5070244;28;20515;-70
2023/03/01 10:56:15;;;;;;;6.07;4.63;;;;;;;;;;5070571;28;20043;-71
2023/03/01 10:59:00;;;;;;;6.97;4.55;;;;;;;;;;5069588;28;20025;-71
2023/03/01 11:01:34;;;;;;;6.80;4.38;;;;;;;;;;5070040;28;20050;-72
2023/03/01 11:04:05;;;;;;;6.25;4.32;;;;;;;;;;5070041;28;20442;-70
2023/03/01 11:06:32;;;;;;;7.28;4.32;;;;;;;;;;5070281;28;20036;-71
2023/03/01 11:09:17;;;;;;;5.50;4.00;;;;;;;;;;5069366;28;20093;-73
2023/03/01 11:11:43;;;;;;;6.50;4.10;;;;;;;;;;5069965;28;20037;-70
2023/03/01 11:14:23;;;;;;;7.95;4.65;;;;;;;;;;5069695;28;20035;-71
2023/03/01 11:17:05;;;;;;;6.28;4.75;;;;;;;;;;5070111;28;20056;-70
2023/03/01 11:19:31;;;;;;;7.55;4.55;;;;;;;;;;5069885;28;20166;-71
2023/03/01 11:22:12;;;;;;;7.15;4.38;;;;;;;;;;5069970;28;20096;-74
2023/03/01 11:24:45;;;;;;;7.85;4.28;;;;;;;;;;5069626;28;20036;-72
2023/03/01 11:27:22;;;;;;;6.50;4.30;;;;;;;;;;5069963;28;20028;-72
2023/03/01 11:30:16;;;;;;;7.28;4.53;;;;;;;;;;5069219;28;20029;-71
2023/03/01 11:33:19;;;;;;;6.65;4.20;;;;;;;;;;5069687;28;20055;-74
2023/03/01 11:36:00;;;;;;;6.85;4.30;;;;;;;;;;5069638;28;20648;-70
2023/03/01 11:38:26;;;;;;;6.75;4.40;;;;;;;;;;5069437;28;20047;-70
2023/03/01 11:40:59;;;;;;;7.15;4.40;;;;;;;;;;5069341;28;20033;-71
2023/03/01 11:43:53;;;;;;;8.18;4.55;;;;;;;;;;5069399;28;20059;-69
2023/03/01 11:46:30;;;;;;;7.18;4.63;;;;;;;;;;5055830;28;20041;-70
2023/03/01 11:49:25;;;;;;;7.07;4.50;;;;;;;;;;5051401;28;20049;-73
2023/03/01 11:52:32;;;;;;;6.53;4.38;;;;;;;;;;5069405;28;20047;-71
2023/03/01 11:55:40;;;;;;;7.40;4.18;;;;;;;;;;5069739;28;20082;-71
2023/03/01 11:58:26;;;;;;;6.22;4.03;;;;;;;;;;5069473;28;20085;-71
2023/03/01 12:01:09;;;;;;;5.47;4.00;;;;;;;;;;5069187;28;20025;-71
2023/03/01 12:03:43;;;;;;;5.72;3.60;;;;;;;;;;5069590;28;20024;-70
2023/03/01 12:06:27;;;;;;;5.57;3.80;;;;;;;;;;5069497;28;20131;-70
2023/03/01 12:09:16;;;;;;;5.80;3.72;;;;;;;;;;5069505;28;20020;-71
2023/03/01 12:11:54;;;;;;;5.70;3.90;;;;;;;;;;5069232;28;20068;-70
2023/03/01 12:14:22;;;;;;;5.43;3.70;;;;;;;;;;5069063;28;20055;-71
2023/03/01 12:17:02;;;;;;;7.10;3.90;;;;;;;;;;5069355;28;20499;-72
2023/03/01 12:19:28;;;;;;;6.35;3.92;;;;;;;;;;5053409;28;20036;-71
2023/03/01 12:22:21;;;;;;;6.55;3.70;;;;;;;;;;5073277;28;20029;-70
2023/03/01 12:25:12;;;;;;;5.47;3.75;;;;;;;;;;5073328;28;20032;-70
2023/03/01 12:27:49;;;;;;;7.60;3.58;;;;;;;;;;5073276;28;20775;-70
2023/03/01 12:30:49;;;;;;;5.30;3.75;;;;;;;;;;5072645;28;20098;-71
2023/03/01 12:33:33;;;;;;;6.38;4.13;;;;;;;;;;5073520;28;20021;-70
2023/03/01 12:36:31;;;;;;;5.68;4.07;;;;;;;;;;5072779;28;20032;-71
2023/03/01 12:39:04;;;;;;;4.82;3.67;;;;;;;;;;5074301;28;20491;-71
2023/03/01 12:41:44;;;;;;;5.47;3.90;;;;;;;;;;5076458;28;20024;-71
2023/03/01 12:44:17;;;;;;;5.78;3.72;;;;;;;;;;5074327;28;20514;-71
2023/03/01 12:47:08;;;;;;;5.25;4.00;;;;;;;;;;5072929;28;20032;-70
2023/03/01 12:49:57;;;;;;;7.55;4.25;;;;;;;;;;5072621;28;20111;-71
2023/03/01 12:52:29;;;;;;;7.18;4.22;;;;;;;;;;5072912;28;20511;-71
2023/03/01 12:54:58;;;;;;;6.07;3.95;;;;;;;;;;5072561;28;20427;-70
2023/03/01 12:57:38;;;;;;;7.03;4.05;;;;;;;;;;5072868;28;20047;-70
2023/03/01 13:00:27;;;;;;;6.17;3.97;;;;;;;;;;5071920;28;20127;-72
2023/03/01 13:03:21;;;;;;;7.82;4.00;;;;;;;;;;5072528;28;20558;-70
2023/03/01 13:06:27;;;;;;;5.68;3.97;;;;;;;;;;5072047;28;20099;-71
2023/03/01 13:09:13;;;;;;;5.63;3.72;;;;;;;;;;5041243;28;20033;-73
2023/03/01 13:11:41;;;;;;;6.13;4.03;;;;;;;;;;5071902;28;20062;-72
2023/03/01 13:14:25;;;;;;;7.22;4.30;;;;;;;;;;5072333;28;20021;-70
2023/03/01 13:16:52;;;;;;;6.50;4.47;;;;;;;;;;5073020;28;20036;-70
2023/03/01 13:19:21;;;;;;;5.80;4.18;;;;;;;;;;5080182;28;20032;-72
2023/03/01 13:21:50;;;;;;;5.57;3.75;;;;;;;;;;5074227;28;20028;-70
2023/03/01 13:24:27;;;;;;;6.78;3.90;;;;;;;;;;5074195;28;20055;-72
2023/03/01 13:27:09;;;;;;;5.30;3.70;;;;;;;;;;5072324;28;20025;-74
2023/03/01 13:29:46;;;;;;;6.43;3.70;;;;;;;;;;5072120;28;20749;-71
2023/03/01 13:32:20;;;;;;;6.53;4.05;;;;;;;;;;5071378;28;20028;-72
2023/03/01 13:34:48;;;;;;;6.82;4.00;;;;;;;;;;5074776;28;20108;-71
2023/03/01 13:37:23;;;;;;;5.38;3.85;;;;;;;;;;5056557;28;20044;-71
2023/03/01 13:39:48;;;;;;;6.82;3.80;;;;;;;;;;5056112;28;20388;-70
2023/03/01 13:42:39;;;;;;;5.18;3.60;;;;;;;;;;5053930;28;20491;-70
2023/03/01 13:45:21;;;;;;;5.90;3.40;;;;;;;;;;5071639;28;20033;-71
2023/03/01 13:47:52;;;;;;;6.60;4.00;;;;;;;;;;5072147;28;20132;-71
2023/03/01 13:50:21;;;;;;;8.25;4.30;;;;;;;;;;5071817;28;20032;-72
2023/03/01 13:52:52;;;;;;;6.07;4.07;;;;;;;;;;5071757;28;20028;-71
2023/03/01 13:55:20;;;;;;;;;;;;;;;;;;5072109;28;20434;-70
2023/03/01 13:57:53;;;;;;;5.10;3.97;;;;;;;;;;5071770;28;19920;-71
2023/03/01 14:00:27;;;;;;;6.85;3.97;;;;;;;;;;5070595;28;20087;-71
2023/03/01 14:03:25;;;;;;;6.63;3.88;;;;;;;;;;5071498;28;20623;-70
2023/03/01 14:06:08;;;;;;;5.03;3.80;;;;;;;;;;5036610;28;20036;-71
2023/03/01 14:08:36;;;;;;;5.47;3.92;;;;;;;;;;5092023;28;20578;-70
2023/03/01 14:11:33;;;;;;;5.32;3.75;;;;;;;;;;5091122;28;20023;-70
2023/03/01 14:14:13;;;;;;;5.72;4.05;;;;;;;;;;5091373;28;20032;-71
2023/03/01 14:16:47;;;;;;;8.00;3.90;;;;;;;;;;5091164;28;20030;-70
2023/03/01 14:19:30;;;;;;;4.90;3.72;;;;;;;;;;5091259;28;20024;-71
2023/03/01 14:22:22;;;;;;;6.88;4.15;;;;;;;;;;5090836;28;20032;-70
2023/03/01 14:24:56;;;;;;;5.70;4.20;;;;;;;;;;5088882;28;20028;-70
2023/03/01 14:27:25;;;;;;;7.65;4.45;;;;;;;;;;5091137;28;20016;-70
2023/03/01 14:29:57;;;;;;;6.22;4.53;;;;;;;;;;5091047;28;20100;-71
2023/03/01 14:32:29;;;;;;;5.72;4.20;;;;;;;;;;5089618;28;20056;-70
2023/03/01 14:34:56;;;;;;;6.95;4.55;;;;;;;;;;5091327;28;20020;-70
2023/03/01 14:37:30;;;;;;;7.07;4.35;;;;;;;;;;5091034;28;20077;-70
2023/03/01 14:39:56;;;;;;;5.80;4.18;;;;;;;;;;5090809;28;20076;-71
2023/03/01 14:42:25;;;;;;;7.03;4.35;;;;;;;;;;5089824;28;20020;-70
2023/03/01 14:44:54;;;;;;;8.50;4.93;;;;;;;;;;5090850;28;20486;-71
2023/03/01 14:47:30;;;;;;;7.35;4.30;;;;;;;;;;5090389;28;20028;-72
2023/03/01 14:50:09;;;;;;;7.45;4.70;;;;;;;;;;5090884;28;20541;-70
2023/03/01 14:52:38;;;;;;;5.68;4.25;;;;;;;;;;5090884;28;20020;-72
2023/03/01 14:55:06;;;;;;;7.10;4.50;;;;;;;;;;5090962;28;20023;-71
2023/03/01 14:57:32;;;;;;;7.13;4.70;;;;;;;;;;5090724;28;20028;-70